sensor_id;sensor_type;location;lat;lon;timestamp;P1;durP1;ratioP1;P2;durP2;ratioP2
46028;SDS011;31763;48.180;7.904;2023-09-19T00:00:43;5.28;;;1.10;;
46028;SDS011;31763;48.180;7.904;2023-09-19T00:03:14;3.45;;;0.98;;
46028;SDS011;31763;48.180;7.904;2023-09-19T00:05:41;2.15;;;1.00;;
46028;SDS011;31763;48.180;7.904;2023-09-19T00:08:12;3.38;;;1.33;;
46028;SDS011;31763;48.180;7.904;2023-09-19T00:10:40;1.50;;;1.20;;
46028;SDS011;31763;48.180;7.904;2023-09-19T00:13:08;2.92;;;1.13;;
46028;SDS011;31763;48.180;7.904;2023-09-19T00:15:42;1.88;;;0.90;;
46028;SDS011;31763;48.180;7.904;2023-09-19T00:18:15;2.08;;;1.10;;
46028;SDS011;31763;48.180;7.904;2023-09-19T00:20:44;4.40;;;1.30;;
46028;SDS011;31763;48.180;7.904;2023-09-19T00:23:15;1.95;;;1.30;;
46028;SDS011;31763;48.180;7.904;2023-09-19T00:25:43;2.42;;;1.23;;
46028;SDS011;31763;48.180;7.904;2023-09-19T00:28:11;3.95;;;1.60;;
46028;SDS011;31763;48.180;7.904;2023-09-19T00:30:39;1.98;;;1.00;;
46028;SDS011;31763;48.180;7.904;2023-09-19T00:33:10;4.15;;;1.85;;
46028;SDS011;31763;48.180;7.904;2023-09-19T00:35:49;1.92;;;1.23;;
46028;SDS011;31763;48.180;7.904;2023-09-19T00:38:19;3.95;;;1.48;;
46028;SDS011;31763;48.180;7.904;2023-09-19T00:40:49;5.97;;;1.55;;
46028;SDS011;31763;48.180;7.904;2023-09-19T00:43:21;2.65;;;1.30;;
46028;SDS011;31763;48.180;7.904;2023-09-19T00:45:51;2.40;;;1.05;;
46028;SDS011;31763;48.180;7.904;2023-09-19T00:48:22;3.55;;;1.27;;
46028;SDS011;31763;48.180;7.904;2023-09-19T00:50:51;2.10;;;1.20;;
46028;SDS011;31763;48.180;7.904;2023-09-19T00:53:23;3.47;;;1.42;;
46028;SDS011;31763;48.180;7.904;2023-09-19T00:55:51;2.00;;;1.30;;
46028;SDS011;31763;48.180;7.904;2023-09-19T00:58:19;6.13;;;1.38;;
46028;SDS011;31763;48.180;7.904;2023-09-19T01:00:48;4.38;;;1.65;;
46028;SDS011;31763;48.180;7.904;2023-09-19T01:03:15;4.50;;;1.40;;
46028;SDS011;31763;48.180;7.904;2023-09-19T01:05:44;2.70;;;1.35;;
46028;SDS011;31763;48.180;7.904;2023-09-19T01:08:12;1.67;;;1.30;;
46028;SDS011;31763;48.180;7.904;2023-09-19T01:10:41;4.47;;;1.40;;
46028;SDS011;31763;48.180;7.904;2023-09-19T01:13:22;1.48;;;1.08;;
46028;SDS011;31763;48.180;7.904;2023-09-19T01:15:59;6.43;;;1.40;;
46028;SDS011;31763;48.180;7.904;2023-09-19T01:18:58;3.83;;;1.35;;
46028;SDS011;31763;48.180;7.904;2023-09-19T01:30:17;2.03;;;0.82;;
46028;SDS011;31763;48.180;7.904;2023-09-19T01:32:51;3.38;;;1.20;;
46028;SDS011;31763;48.180;7.904;2023-09-19T01:35:18;4.72;;;1.48;;
46028;SDS011;31763;48.180;7.904;2023-09-19T01:37:46;2.33;;;1.15;;
46028;SDS011;31763;48.180;7.904;2023-09-19T01:40:14;2.83;;;1.00;;
46028;SDS011;31763;48.180;7.904;2023-09-19T01:42:45;3.13;;;1.10;;
46028;SDS011;31763;48.180;7.904;2023-09-19T01:51:09;2.95;;;1.20;;
46028;SDS011;31763;48.180;7.904;2023-09-19T01:53:43;1.25;;;0.70;;
46028;SDS011;31763;48.180;7.904;2023-09-19T01:56:25;0.85;;;0.60;;
46028;SDS011;31763;48.180;7.904;2023-09-19T01:59:10;3.47;;;1.02;;
46028;SDS011;31763;48.180;7.904;2023-09-19T02:01:40;2.60;;;1.27;;
46028;SDS011;31763;48.180;7.904;2023-09-19T02:04:11;1.80;;;0.85;;
46028;SDS011;31763;48.180;7.904;2023-09-19T02:06:39;1.75;;;0.85;;
46028;SDS011;31763;48.180;7.904;2023-09-19T02:09:07;1.83;;;0.70;;
46028;SDS011;31763;48.180;7.904;2023-09-19T02:11:35;2.65;;;1.15;;
46028;SDS011;31763;48.180;7.904;2023-09-19T02:14:03;3.13;;;0.90;;
46028;SDS011;31763;48.180;7.904;2023-09-19T02:16:35;1.55;;;0.90;;
46028;SDS011;31763;48.180;7.904;2023-09-19T02:19:02;1.52;;;0.70;;
46028;SDS011;31763;48.180;7.904;2023-09-19T02:21:32;3.40;;;0.70;;
46028;SDS011;31763;48.180;7.904;2023-09-19T02:23:59;4.85;;;0.98;;
46028;SDS011;31763;48.180;7.904;2023-09-19T02:26:27;4.10;;;1.00;;
46028;SDS011;31763;48.180;7.904;2023-09-19T02:28:54;3.65;;;0.57;;
46028;SDS011;31763;48.180;7.904;2023-09-19T02:31:21;1.08;;;0.60;;
46028;SDS011;31763;48.180;7.904;2023-09-19T02:33:49;2.70;;;0.75;;
46028;SDS011;31763;48.180;7.904;2023-09-19T02:36:16;2.35;;;1.10;;
46028;SDS011;31763;48.180;7.904;2023-09-19T02:38:44;2.72;;;0.90;;
46028;SDS011;31763;48.180;7.904;2023-09-19T02:41:11;3.03;;;1.23;;
46028;SDS011;31763;48.180;7.904;2023-09-19T02:43:38;1.90;;;1.20;;
46028;SDS011;31763;48.180;7.904;2023-09-19T02:46:06;2.25;;;1.10;;
46028;SDS011;31763;48.180;7.904;2023-09-19T02:48:33;2.08;;;1.08;;
46028;SDS011;31763;48.180;7.904;2023-09-19T02:51:02;4.15;;;1.23;;
46028;SDS011;31763;48.180;7.904;2023-09-19T02:53:29;1.45;;;0.80;;
46028;SDS011;31763;48.180;7.904;2023-09-19T02:56:00;2.58;;;1.13;;
46028;SDS011;31763;48.180;7.904;2023-09-19T02:58:27;2.92;;;0.98;;
46028;SDS011;31763;48.180;7.904;2023-09-19T03:00:56;2.17;;;0.85;;
46028;SDS011;31763;48.180;7.904;2023-09-19T03:03:24;1.92;;;0.90;;
46028;SDS011;31763;48.180;7.904;2023-09-19T03:05:51;1.33;;;1.05;;
46028;SDS011;31763;48.180;7.904;2023-09-19T03:08:21;1.48;;;0.90;;
46028;SDS011;31763;48.180;7.904;2023-09-19T03:10:48;3.67;;;0.95;;
46028;SDS011;31763;48.180;7.904;2023-09-19T03:13:16;2.33;;;0.90;;
46028;SDS011;31763;48.180;7.904;2023-09-19T03:15:43;1.58;;;1.27;;
46028;SDS011;31763;48.180;7.904;2023-09-19T05:26:24;2.05;;;1.70;;
46028;SDS011;31763;48.180;7.904;2023-09-19T05:28:51;4.05;;;1.98;;
46028;SDS011;31763;48.180;7.904;2023-09-19T05:31:19;2.47;;;1.67;;
46028;SDS011;31763;48.180;7.904;2023-09-19T05:33:47;2.13;;;1.40;;
46028;SDS011;31763;48.180;7.904;2023-09-19T05:36:14;2.90;;;1.80;;
46028;SDS011;31763;48.180;7.904;2023-09-19T05:38:43;3.17;;;1.80;;
46028;SDS011;31763;48.180;7.904;2023-09-19T05:41:11;5.80;;;1.83;;
46028;SDS011;31763;48.180;7.904;2023-09-19T05:43:40;3.33;;;2.00;;
46028;SDS011;31763;48.180;7.904;2023-09-19T05:46:08;5.88;;;2.40;;
46028;SDS011;31763;48.180;7.904;2023-09-19T05:48:36;3.83;;;1.80;;
46028;SDS011;31763;48.180;7.904;2023-09-19T05:51:05;2.35;;;1.30;;
46028;SDS011;31763;48.180;7.904;2023-09-19T05:53:33;3.60;;;1.90;;
46028;SDS011;31763;48.180;7.904;2023-09-19T05:56:00;3.70;;;1.92;;
46028;SDS011;31763;48.180;7.904;2023-09-19T05:58:27;4.55;;;1.52;;
46028;SDS011;31763;48.180;7.904;2023-09-19T06:00:55;4.38;;;1.55;;
46028;SDS011;31763;48.180;7.904;2023-09-19T06:03:23;2.33;;;1.83;;
46028;SDS011;31763;48.180;7.904;2023-09-19T06:05:51;3.72;;;1.73;;
46028;SDS011;31763;48.180;7.904;2023-09-19T06:08:23;3.80;;;1.55;;
46028;SDS011;31763;48.180;7.904;2023-09-19T06:10:52;1.95;;;1.67;;
46028;SDS011;31763;48.180;7.904;2023-09-19T06:13:20;3.33;;;1.50;;
46028;SDS011;31763;48.180;7.904;2023-09-19T06:15:47;1.92;;;1.63;;
46028;SDS011;31763;48.180;7.904;2023-09-19T06:18:15;3.03;;;1.60;;
46028;SDS011;31763;48.180;7.904;2023-09-19T06:20:46;1.55;;;1.40;;
46028;SDS011;31763;48.180;7.904;2023-09-19T06:23:14;5.85;;;2.10;;
46028;SDS011;31763;48.180;7.904;2023-09-19T06:25:42;2.88;;;2.22;;
46028;SDS011;31763;48.180;7.904;2023-09-19T06:28:10;3.65;;;2.28;;
46028;SDS011;31763;48.180;7.904;2023-09-19T06:30:40;2.90;;;2.08;;
46028;SDS011;31763;48.180;7.904;2023-09-19T06:33:08;3.85;;;2.47;;
46028;SDS011;31763;48.180;7.904;2023-09-19T06:35:38;4.43;;;2.28;;
46028;SDS011;31763;48.180;7.904;2023-09-19T06:38:05;3.88;;;2.80;;
46028;SDS011;31763;48.180;7.904;2023-09-19T06:40:34;3.08;;;2.60;;
46028;SDS011;31763;48.180;7.904;2023-09-19T06:43:01;6.22;;;3.10;;
46028;SDS011;31763;48.180;7.904;2023-09-19T06:45:30;3.05;;;2.38;;
46028;SDS011;31763;48.180;7.904;2023-09-19T06:47:58;4.53;;;2.17;;
46028;SDS011;31763;48.180;7.904;2023-09-19T06:50:26;4.70;;;2.70;;
46028;SDS011;31763;48.180;7.904;2023-09-19T06:52:54;4.35;;;2.60;;
46028;SDS011;31763;48.180;7.904;2023-09-19T06:55:24;4.13;;;2.90;;
46028;SDS011;31763;48.180;7.904;2023-09-19T06:57:55;6.93;;;3.30;;
46028;SDS011;31763;48.180;7.904;2023-09-19T07:00:22;4.07;;;2.40;;
46028;SDS011;31763;48.180;7.904;2023-09-19T07:03:01;4.40;;;2.63;;
46028;SDS011;31763;48.180;7.904;2023-09-19T07:05:32;6.50;;;2.75;;
46028;SDS011;31763;48.180;7.904;2023-09-19T07:08:00;4.60;;;2.42;;
46028;SDS011;31763;48.180;7.904;2023-09-19T07:10:27;4.55;;;2.47;;
46028;SDS011;31763;48.180;7.904;2023-09-19T07:13:04;3.95;;;2.17;;
46028;SDS011;31763;48.180;7.904;2023-09-19T07:15:35;7.07;;;2.10;;
46028;SDS011;31763;48.180;7.904;2023-09-19T07:18:06;4.40;;;2.00;;
46028;SDS011;31763;48.180;7.904;2023-09-19T07:20:37;5.93;;;2.35;;
46028;SDS011;31763;48.180;7.904;2023-09-19T07:23:04;4.20;;;2.08;;
46028;SDS011;31763;48.180;7.904;2023-09-19T07:25:32;2.25;;;1.48;;
46028;SDS011;31763;48.180;7.904;2023-09-19T07:28:00;6.28;;;2.00;;
46028;SDS011;31763;48.180;7.904;2023-09-19T07:30:27;3.25;;;1.60;;
46028;SDS011;31763;48.180;7.904;2023-09-19T07:32:55;5.68;;;2.92;;
46028;SDS011;31763;48.180;7.904;2023-09-19T07:35:23;2.20;;;1.63;;
46028;SDS011;31763;48.180;7.904;2023-09-19T07:37:52;5.60;;;1.70;;
46028;SDS011;31763;48.180;7.904;2023-09-19T07:40:19;2.38;;;1.60;;
46028;SDS011;31763;48.180;7.904;2023-09-19T07:42:47;3.72;;;1.90;;
46028;SDS011;31763;48.180;7.904;2023-09-19T07:45:15;4.72;;;2.17;;
46028;SDS011;31763;48.180;7.904;2023-09-19T07:47:47;2.83;;;2.20;;
46028;SDS011;31763;48.180;7.904;2023-09-19T07:50:18;4.80;;;2.33;;
46028;SDS011;31763;48.180;7.904;2023-09-19T07:52:47;6.75;;;2.22;;
46028;SDS011;31763;48.180;7.904;2023-09-19T07:55:19;3.42;;;1.80;;
46028;SDS011;31763;48.180;7.904;2023-09-19T07:57:54;2.05;;;1.85;;
46028;SDS011;31763;48.180;7.904;2023-09-19T08:00:21;2.60;;;2.00;;
46028;SDS011;31763;48.180;7.904;2023-09-19T08:02:48;4.85;;;2.83;;
46028;SDS011;31763;48.180;7.904;2023-09-19T08:05:23;3.05;;;2.47;;
46028;SDS011;31763;48.180;7.904;2023-09-19T08:07:51;3.85;;;2.47;;
46028;SDS011;31763;48.180;7.904;2023-09-19T08:10:20;5.13;;;2.47;;
46028;SDS011;31763;48.180;7.904;2023-09-19T08:12:48;6.38;;;2.85;;
46028;SDS011;31763;48.180;7.904;2023-09-19T08:15:22;3.95;;;2.78;;
46028;SDS011;31763;48.180;7.904;2023-09-19T08:17:49;4.57;;;2.95;;
46028;SDS011;31763;48.180;7.904;2023-09-19T08:20:16;4.80;;;2.60;;
46028;SDS011;31763;48.180;7.904;2023-09-19T08:22:49;4.80;;;2.50;;
46028;SDS011;31763;48.180;7.904;2023-09-19T08:25:23;5.50;;;2.15;;
46028;SDS011;31763;48.180;7.904;2023-09-19T08:27:55;6.10;;;2.28;;
46028;SDS011;31763;48.180;7.904;2023-09-19T08:30:24;4.95;;;2.80;;
46028;SDS011;31763;48.180;7.904;2023-09-19T08:32:57;3.08;;;2.25;;
46028;SDS011;31763;48.180;7.904;2023-09-19T08:35:25;2.78;;;2.10;;
46028;SDS011;31763;48.180;7.904;2023-09-19T08:37:53;3.25;;;1.67;;
46028;SDS011;31763;48.180;7.904;2023-09-19T08:40:22;5.10;;;2.15;;
46028;SDS011;31763;48.180;7.904;2023-09-19T08:42:50;2.33;;;1.38;;
46028;SDS011;31763;48.180;7.904;2023-09-19T08:45:20;4.38;;;1.73;;
46028;SDS011;31763;48.180;7.904;2023-09-19T08:54:06;6.15;;;1.60;;
46028;SDS011;31763;48.180;7.904;2023-09-19T08:56:12;2.80;;;1.30;;
46028;SDS011;31763;48.180;7.904;2023-09-19T08:58:44;4.63;;;1.17;;
46028;SDS011;31763;48.180;7.904;2023-09-19T09:01:20;1.85;;;1.00;;
46028;SDS011;31763;48.180;7.904;2023-09-19T09:06:23;2.17;;;0.90;;
46028;SDS011;31763;48.180;7.904;2023-09-19T09:08:51;1.80;;;0.88;;
46028;SDS011;31763;48.180;7.904;2023-09-19T09:11:18;1.63;;;0.95;;
46028;SDS011;31763;48.180;7.904;2023-09-19T09:13:47;2.80;;;1.13;;
46028;SDS011;31763;48.180;7.904;2023-09-19T09:16:14;3.00;;;1.35;;
46028;SDS011;31763;48.180;7.904;2023-09-19T09:18:46;2.22;;;1.02;;
46028;SDS011;31763;48.180;7.904;2023-09-19T09:21:19;1.67;;;0.90;;
46028;SDS011;31763;48.180;7.904;2023-09-19T09:23:48;2.45;;;1.25;;
46028;SDS011;31763;48.180;7.904;2023-09-19T09:26:30;5.00;;;1.10;;
46028;SDS011;31763;48.180;7.904;2023-09-19T09:29:05;3.47;;;1.10;;
46028;SDS011;31763;48.180;7.904;2023-09-19T09:31:33;3.75;;;1.20;;
46028;SDS011;31763;48.180;7.904;2023-09-19T09:34:00;3.25;;;1.15;;
46028;SDS011;31763;48.180;7.904;2023-09-19T09:36:35;2.88;;;1.10;;
46028;SDS011;31763;48.180;7.904;2023-09-19T09:39:03;2.38;;;0.90;;
46028;SDS011;31763;48.180;7.904;2023-09-19T09:41:51;2.72;;;1.30;;
46028;SDS011;31763;48.180;7.904;2023-09-19T09:44:19;0.88;;;0.47;;
46028;SDS011;31763;48.180;7.904;2023-09-19T09:46:47;2.88;;;1.15;;
46028;SDS011;31763;48.180;7.904;2023-09-19T09:49:25;2.92;;;1.00;;
46028;SDS011;31763;48.180;7.904;2023-09-19T09:51:59;3.13;;;1.75;;
46028;SDS011;31763;48.180;7.904;2023-09-19T09:54:35;1.90;;;0.80;;
46028;SDS011;31763;48.180;7.904;2023-09-19T09:57:09;1.90;;;0.85;;
46028;SDS011;31763;48.180;7.904;2023-09-19T09:59:44;1.40;;;0.50;;
46028;SDS011;31763;48.180;7.904;2023-09-19T10:02:38;4.70;;;0.93;;
46028;SDS011;31763;48.180;7.904;2023-09-19T10:05:15;1.95;;;1.20;;
46028;SDS011;31763;48.180;7.904;2023-09-19T10:07:47;3.78;;;0.90;;
46028;SDS011;31763;48.180;7.904;2023-09-19T10:13:06;2.75;;;1.65;;
46028;SDS011;31763;48.180;7.904;2023-09-19T10:15:34;4.43;;;1.52;;
46028;SDS011;31763;48.180;7.904;2023-09-19T10:18:04;1.58;;;1.08;;
46028;SDS011;31763;48.180;7.904;2023-09-19T10:20:34;3.85;;;1.00;;
46028;SDS011;31763;48.180;7.904;2023-09-19T10:23:06;5.45;;;1.20;;
46028;SDS011;31763;48.180;7.904;2023-09-19T10:25:39;3.05;;;0.90;;
46028;SDS011;31763;48.180;7.904;2023-09-19T10:28:09;2.67;;;1.00;;
46028;SDS011;31763;48.180;7.904;2023-09-19T10:30:42;3.22;;;1.35;;
46028;SDS011;31763;48.180;7.904;2023-09-19T10:33:12;3.33;;;1.00;;
46028;SDS011;31763;48.180;7.904;2023-09-19T10:35:44;3.40;;;1.23;;
46028;SDS011;31763;48.180;7.904;2023-09-19T10:38:14;4.03;;;0.85;;
46028;SDS011;31763;48.180;7.904;2023-09-19T10:40:52;2.20;;;1.23;;
46028;SDS011;31763;48.180;7.904;2023-09-19T10:43:21;1.48;;;1.00;;
46028;SDS011;31763;48.180;7.904;2023-09-19T10:46:01;1.63;;;1.10;;
46028;SDS011;31763;48.180;7.904;2023-09-19T10:48:32;3.05;;;1.40;;
46028;SDS011;31763;48.180;7.904;2023-09-19T10:53:40;1.85;;;1.13;;
46028;SDS011;31763;48.180;7.904;2023-09-19T10:56:22;2.92;;;1.35;;
46028;SDS011;31763;48.180;7.904;2023-09-19T10:59:08;3.15;;;1.20;;
46028;SDS011;31763;48.180;7.904;2023-09-19T11:01:41;2.45;;;1.00;;
46028;SDS011;31763;48.180;7.904;2023-09-19T11:04:24;2.53;;;0.77;;
46028;SDS011;31763;48.180;7.904;2023-09-19T11:07:05;3.05;;;1.30;;
46028;SDS011;31763;48.180;7.904;2023-09-19T11:09:51;3.35;;;1.00;;
46028;SDS011;31763;48.180;7.904;2023-09-19T11:14:58;3.92;;;1.10;;
46028;SDS011;31763;48.180;7.904;2023-09-19T11:17:38;1.85;;;1.30;;
46028;SDS011;31763;48.180;7.904;2023-09-19T11:30:45;1.67;;;1.23;;
46028;SDS011;31763;48.180;7.904;2023-09-19T11:33:27;1.95;;;1.20;;
46028;SDS011;31763;48.180;7.904;2023-09-19T11:36:09;1.45;;;0.70;;
46028;SDS011;31763;48.180;7.904;2023-09-19T11:44:38;2.70;;;1.20;;
46028;SDS011;31763;48.180;7.904;2023-09-19T11:49:28;2.45;;;0.73;;
46028;SDS011;31763;48.180;7.904;2023-09-19T11:51:58;3.63;;;0.80;;
46028;SDS011;31763;48.180;7.904;2023-09-19T11:54:35;1.70;;;0.90;;
46028;SDS011;31763;48.180;7.904;2023-09-19T11:57:06;1.33;;;1.00;;
46028;SDS011;31763;48.180;7.904;2023-09-19T11:59:37;3.05;;;0.80;;
46028;SDS011;31763;48.180;7.904;2023-09-19T12:02:06;1.42;;;0.70;;
46028;SDS011;31763;48.180;7.904;2023-09-19T12:04:36;1.03;;;0.70;;
46028;SDS011;31763;48.180;7.904;2023-09-19T12:07:06;3.55;;;1.00;;
46028;SDS011;31763;48.180;7.904;2023-09-19T12:09:38;1.58;;;0.80;;
46028;SDS011;31763;48.180;7.904;2023-09-19T12:12:08;1.00;;;0.75;;
46028;SDS011;31763;48.180;7.904;2023-09-19T12:14:38;3.03;;;0.82;;
46028;SDS011;31763;48.180;7.904;2023-09-19T12:17:08;2.80;;;0.73;;
46028;SDS011;31763;48.180;7.904;2023-09-19T12:19:35;3.33;;;1.10;;
46028;SDS011;31763;48.180;7.904;2023-09-19T12:22:02;2.67;;;1.00;;
46028;SDS011;31763;48.180;7.904;2023-09-19T12:24:35;1.63;;;0.80;;
46028;SDS011;31763;48.180;7.904;2023-09-19T12:27:05;1.17;;;0.80;;
46028;SDS011;31763;48.180;7.904;2023-09-19T12:29:51;0.98;;;0.70;;
46028;SDS011;31763;48.180;7.904;2023-09-19T12:32:34;1.65;;;0.88;;
46028;SDS011;31763;48.180;7.904;2023-09-19T12:37:33;1.80;;;1.00;;
46028;SDS011;31763;48.180;7.904;2023-09-19T12:40:06;1.30;;;1.05;;
46028;SDS011;31763;48.180;7.904;2023-09-19T12:42:44;3.53;;;0.90;;
46028;SDS011;31763;48.180;7.904;2023-09-19T12:45:12;1.98;;;0.70;;
46028;SDS011;31763;48.180;7.904;2023-09-19T12:48:17;2.60;;;0.80;;
46028;SDS011;31763;48.180;7.904;2023-09-19T12:53:39;1.67;;;1.25;;
46028;SDS011;31763;48.180;7.904;2023-09-19T12:56:10;4.15;;;0.80;;
46028;SDS011;31763;48.180;7.904;2023-09-19T12:58:50;1.00;;;0.80;;
46028;SDS011;31763;48.180;7.904;2023-09-19T13:01:29;2.13;;;0.63;;
46028;SDS011;31763;48.180;7.904;2023-09-19T13:04:17;2.15;;;1.02;;
46028;SDS011;31763;48.180;7.904;2023-09-19T13:06:47;2.08;;;0.73;;
46028;SDS011;31763;48.180;7.904;2023-09-19T13:09:16;3.33;;;1.17;;
46028;SDS011;31763;48.180;7.904;2023-09-19T13:11:47;4.35;;;0.80;;
46028;SDS011;31763;48.180;7.904;2023-09-19T13:14:19;1.63;;;0.70;;
46028;SDS011;31763;48.180;7.904;2023-09-19T13:19:49;2.50;;;0.60;;
46028;SDS011;31763;48.180;7.904;2023-09-19T13:22:40;1.65;;;0.90;;
46028;SDS011;31763;48.180;7.904;2023-09-19T13:25:14;2.05;;;0.90;;
46028;SDS011;31763;48.180;7.904;2023-09-19T13:27:45;0.98;;;0.70;;
46028;SDS011;31763;48.180;7.904;2023-09-19T13:30:22;2.20;;;1.08;;
46028;SDS011;31763;48.180;7.904;2023-09-19T13:33:08;1.10;;;0.75;;
46028;SDS011;31763;48.180;7.904;2023-09-19T13:35:38;1.55;;;1.10;;
46028;SDS011;31763;48.180;7.904;2023-09-19T13:38:08;2.15;;;1.13;;
46028;SDS011;31763;48.180;7.904;2023-09-19T13:40:38;1.80;;;1.10;;
46028;SDS011;31763;48.180;7.904;2023-09-19T13:43:08;1.48;;;1.23;;
46028;SDS011;31763;48.180;7.904;2023-09-19T13:45:37;3.15;;;1.40;;
46028;SDS011;31763;48.180;7.904;2023-09-19T13:48:04;1.92;;;1.30;;
46028;SDS011;31763;48.180;7.904;2023-09-19T13:50:32;3.50;;;1.35;;
46028;SDS011;31763;48.180;7.904;2023-09-19T13:53:00;1.20;;;0.80;;
46028;SDS011;31763;48.180;7.904;2023-09-19T13:55:28;1.42;;;1.00;;
46028;SDS011;31763;48.180;7.904;2023-09-19T13:57:55;1.48;;;1.10;;
46028;SDS011;31763;48.180;7.904;2023-09-19T14:00:23;1.63;;;0.90;;
46028;SDS011;31763;48.180;7.904;2023-09-19T14:02:51;2.78;;;1.38;;
46028;SDS011;31763;48.180;7.904;2023-09-19T14:05:18;2.13;;;1.20;;
46028;SDS011;31763;48.180;7.904;2023-09-19T14:07:47;2.00;;;1.17;;
46028;SDS011;31763;48.180;7.904;2023-09-19T14:10:14;1.95;;;1.48;;
46028;SDS011;31763;48.180;7.904;2023-09-19T14:12:44;2.05;;;1.20;;
46028;SDS011;31763;48.180;7.904;2023-09-19T14:15:11;1.87;;;1.20;;
46028;SDS011;31763;48.180;7.904;2023-09-19T14:17:40;1.80;;;1.25;;
46028;SDS011;31763;48.180;7.904;2023-09-19T14:20:08;1.95;;;1.42;;
46028;SDS011;31763;48.180;7.904;2023-09-19T14:22:37;1.50;;;1.10;;
46028;SDS011;31763;48.180;7.904;2023-09-19T14:25:04;2.45;;;1.65;;
46028;SDS011;31763;48.180;7.904;2023-09-19T14:27:32;2.20;;;1.52;;
46028;SDS011;31763;48.180;7.904;2023-09-19T14:29:59;2.45;;;1.27;;
46028;SDS011;31763;48.180;7.904;2023-09-19T14:32:27;3.05;;;1.45;;
46028;SDS011;31763;48.180;7.904;2023-09-19T14:34:54;2.33;;;1.80;;
46028;SDS011;31763;48.180;7.904;2023-09-19T14:37:21;2.28;;;1.27;;
46028;SDS011;31763;48.180;7.904;2023-09-19T14:39:49;3.20;;;1.70;;
46028;SDS011;31763;48.180;7.904;2023-09-19T14:42:16;2.80;;;1.58;;
46028;SDS011;31763;48.180;7.904;2023-09-19T14:44:44;4.32;;;1.95;;
46028;SDS011;31763;48.180;7.904;2023-09-19T14:47:13;2.10;;;1.40;;
46028;SDS011;31763;48.180;7.904;2023-09-19T14:49:42;3.65;;;1.40;;
46028;SDS011;31763;48.180;7.904;2023-09-19T14:52:11;2.22;;;1.63;;
46028;SDS011;31763;48.180;7.904;2023-09-19T14:54:42;5.10;;;2.03;;
46028;SDS011;31763;48.180;7.904;2023-09-19T14:57:09;2.30;;;1.40;;
46028;SDS011;31763;48.180;7.904;2023-09-19T14:59:37;2.47;;;1.23;;
46028;SDS011;31763;48.180;7.904;2023-09-19T15:02:05;2.60;;;1.77;;
46028;SDS011;31763;48.180;7.904;2023-09-19T15:04:33;2.08;;;1.30;;
46028;SDS011;31763;48.180;7.904;2023-09-19T15:07:00;1.33;;;1.10;;
46028;SDS011;31763;48.180;7.904;2023-09-19T15:09:29;1.67;;;1.08;;
46028;SDS011;31763;48.180;7.904;2023-09-19T15:11:58;2.25;;;1.15;;
46028;SDS011;31763;48.180;7.904;2023-09-19T15:14:26;2.95;;;1.30;;
46028;SDS011;31763;48.180;7.904;2023-09-19T15:16:53;2.65;;;1.48;;
46028;SDS011;31763;48.180;7.904;2023-09-19T15:19:20;2.00;;;1.20;;
46028;SDS011;31763;48.180;7.904;2023-09-19T15:21:48;1.45;;;1.17;;
46028;SDS011;31763;48.180;7.904;2023-09-19T15:24:16;2.60;;;1.48;;
46028;SDS011;31763;48.180;7.904;2023-09-19T15:26:44;3.08;;;1.20;;
46028;SDS011;31763;48.180;7.904;2023-09-19T15:29:12;3.00;;;1.17;;
46028;SDS011;31763;48.180;7.904;2023-09-19T15:31:40;1.92;;;1.33;;
46028;SDS011;31763;48.180;7.904;2023-09-19T15:34:07;3.58;;;1.10;;
46028;SDS011;31763;48.180;7.904;2023-09-19T15:36:35;2.10;;;1.23;;
46028;SDS011;31763;48.180;7.904;2023-09-19T15:39:04;1.80;;;1.10;;
46028;SDS011;31763;48.180;7.904;2023-09-19T15:41:36;1.52;;;0.77;;
46028;SDS011;31763;48.180;7.904;2023-09-19T15:44:07;3.63;;;1.20;;
46028;SDS011;31763;48.180;7.904;2023-09-19T15:46:38;2.60;;;1.23;;
46028;SDS011;31763;48.180;7.904;2023-09-19T15:49:05;2.28;;;1.13;;
46028;SDS011;31763;48.180;7.904;2023-09-19T15:51:34;1.77;;;0.60;;
46028;SDS011;31763;48.180;7.904;2023-09-19T15:54:08;3.47;;;1.40;;
46028;SDS011;31763;48.180;7.904;2023-09-19T15:56:37;1.98;;;1.30;;
46028;SDS011;31763;48.180;7.904;2023-09-19T15:59:07;2.80;;;1.13;;
46028;SDS011;31763;48.180;7.904;2023-09-19T16:01:37;3.00;;;1.40;;
46028;SDS011;31763;48.180;7.904;2023-09-19T16:04:05;3.28;;;1.20;;
46028;SDS011;31763;48.180;7.904;2023-09-19T16:06:35;3.60;;;1.17;;
46028;SDS011;31763;48.180;7.904;2023-09-19T16:09:04;2.67;;;1.05;;
46028;SDS011;31763;48.180;7.904;2023-09-19T16:11:32;1.65;;;1.08;;
46028;SDS011;31763;48.180;7.904;2023-09-19T16:14:02;1.80;;;1.20;;
46028;SDS011;31763;48.180;7.904;2023-09-19T16:16:30;1.17;;;0.80;;
46028;SDS011;31763;48.180;7.904;2023-09-19T16:19:00;2.55;;;1.35;;
46028;SDS011;31763;48.180;7.904;2023-09-19T16:23:58;2.45;;;1.20;;
46028;SDS011;31763;48.180;7.904;2023-09-19T16:26:26;1.92;;;0.95;;
46028;SDS011;31763;48.180;7.904;2023-09-19T16:28:55;1.67;;;0.80;;
46028;SDS011;31763;48.180;7.904;2023-09-19T16:31:27;3.85;;;1.50;;
46028;SDS011;31763;48.180;7.904;2023-09-19T16:33:56;2.05;;;1.10;;
46028;SDS011;31763;48.180;7.904;2023-09-19T16:36:25;2.20;;;0.80;;
46028;SDS011;31763;48.180;7.904;2023-09-19T16:38:53;1.33;;;0.90;;
46028;SDS011;31763;48.180;7.904;2023-09-19T16:41:20;3.33;;;0.95;;
46028;SDS011;31763;48.180;7.904;2023-09-19T16:43:48;1.65;;;1.00;;
46028;SDS011;31763;48.180;7.904;2023-09-19T16:46:15;2.70;;;1.35;;
46028;SDS011;31763;48.180;7.904;2023-09-19T16:48:44;2.30;;;0.93;;
46028;SDS011;31763;48.180;7.904;2023-09-19T16:51:16;2.83;;;1.20;;
46028;SDS011;31763;48.180;7.904;2023-09-19T16:53:43;1.70;;;1.10;;
46028;SDS011;31763;48.180;7.904;2023-09-19T16:56:19;2.92;;;1.15;;
46028;SDS011;31763;48.180;7.904;2023-09-19T16:58:47;3.33;;;0.98;;
46028;SDS011;31763;48.180;7.904;2023-09-19T17:01:18;2.53;;;1.20;;
46028;SDS011;31763;48.180;7.904;2023-09-19T17:03:47;4.38;;;1.10;;
46028;SDS011;31763;48.180;7.904;2023-09-19T17:06:16;2.03;;;1.02;;
46028;SDS011;31763;48.180;7.904;2023-09-19T17:08:46;1.30;;;0.93;;
46028;SDS011;31763;48.180;7.904;2023-09-19T17:11:14;1.40;;;1.00;;
46028;SDS011;31763;48.180;7.904;2023-09-19T17:16:15;2.40;;;0.80;;
46028;SDS011;31763;48.180;7.904;2023-09-19T17:18:51;1.70;;;0.80;;
46028;SDS011;31763;48.180;7.904;2023-09-19T17:21:20;1.15;;;0.80;;
46028;SDS011;31763;48.180;7.904;2023-09-19T17:23:48;1.73;;;1.00;;
46028;SDS011;31763;48.180;7.904;2023-09-19T17:26:15;1.88;;;0.95;;
46028;SDS011;31763;48.180;7.904;2023-09-19T17:28:45;2.72;;;1.08;;
46028;SDS011;31763;48.180;7.904;2023-09-19T17:33:46;1.63;;;0.85;;
46028;SDS011;31763;48.180;7.904;2023-09-19T17:36:16;3.28;;;1.00;;
46028;SDS011;31763;48.180;7.904;2023-09-19T17:38:46;3.38;;;1.10;;
46028;SDS011;31763;48.180;7.904;2023-09-19T17:41:15;2.28;;;0.95;;
46028;SDS011;31763;48.180;7.904;2023-09-19T17:43:43;1.40;;;0.77;;
46028;SDS011;31763;48.180;7.904;2023-09-19T17:46:12;1.42;;;0.93;;
46028;SDS011;31763;48.180;7.904;2023-09-19T17:48:50;2.67;;;1.10;;
46028;SDS011;31763;48.180;7.904;2023-09-19T17:51:20;3.28;;;1.10;;
46028;SDS011;31763;48.180;7.904;2023-09-19T17:53:47;2.88;;;1.02;;
46028;SDS011;31763;48.180;7.904;2023-09-19T17:56:15;1.65;;;0.80;;
46028;SDS011;31763;48.180;7.904;2023-09-19T17:58:44;1.40;;;0.90;;
46028;SDS011;31763;48.180;7.904;2023-09-19T18:01:16;1.87;;;0.80;;
46028;SDS011;31763;48.180;7.904;2023-09-19T18:03:47;2.50;;;0.88;;
46028;SDS011;31763;48.180;7.904;2023-09-19T18:06:15;1.58;;;1.10;;
46028;SDS011;31763;48.180;7.904;2023-09-19T18:08:44;1.40;;;0.90;;
46028;SDS011;31763;48.180;7.904;2023-09-19T18:11:12;3.30;;;1.33;;
46028;SDS011;31763;48.180;7.904;2023-09-19T18:13:42;1.90;;;0.83;;
46028;SDS011;31763;48.180;7.904;2023-09-19T18:16:10;1.73;;;1.10;;
46028;SDS011;31763;48.180;7.904;2023-09-19T18:18:38;1.38;;;0.98;;
46028;SDS011;31763;48.180;7.904;2023-09-19T18:21:06;2.53;;;1.58;;